createdAt,value
2022-09-15T00:00:00.564Z,15.85
2022-09-15T00:02:31.570Z,15.82
2022-09-15T00:05:05.896Z,15.80
2022-09-15T00:07:36.132Z,15.80
2022-09-15T00:10:11.896Z,15.81
2022-09-15T00:12:41.861Z,15.83
2022-09-15T00:15:14.871Z,15.83
2022-09-15T00:17:46.713Z,15.91
2022-09-15T00:20:17.010Z,15.77
2022-09-15T00:22:47.488Z,15.80
2022-09-15T00:25:17.182Z,15.73
2022-09-15T00:27:47.343Z,15.70
2022-09-15T00:30:17.151Z,15.80
2022-09-15T00:32:46.977Z,15.66
2022-09-15T00:35:16.931Z,15.72
2022-09-15T00:37:46.594Z,15.67
2022-09-15T00:40:16.621Z,15.67
2022-09-15T00:42:46.421Z,15.84
2022-09-15T00:45:17.748Z,15.71
2022-09-15T00:47:47.329Z,15.64
2022-09-15T00:50:19.711Z,15.50
2022-09-15T00:52:55.235Z,15.49
2022-09-15T00:55:28.948Z,15.45
2022-09-15T00:58:06.663Z,15.42
2022-09-15T01:00:36.882Z,15.40
2022-09-15T01:03:07.002Z,15.42
2022-09-15T01:05:40.839Z,15.37
2022-09-15T01:08:13.386Z,15.41
2022-09-15T01:10:44.851Z,15.42
2022-09-15T01:13:15.887Z,15.43
2022-09-15T01:19:06.955Z,15.36
2022-09-15T01:21:58.767Z,15.37
2022-09-15T01:25:02.888Z,15.37
2022-09-15T01:28:01.223Z,15.33
2022-09-15T01:30:34.216Z,15.40
2022-09-15T01:33:15.880Z,15.32
2022-09-15T01:35:51.682Z,15.39
2022-09-15T01:38:39.874Z,15.33
2022-09-15T01:41:21.147Z,15.30
2022-09-15T01:43:57.084Z,15.42
2022-09-15T01:46:30.952Z,15.34
2022-09-15T01:49:03.085Z,15.28
2022-09-15T01:51:37.703Z,15.35
2022-09-15T01:54:08.827Z,15.24
2022-09-15T01:56:41.619Z,15.25
2022-09-15T01:59:11.802Z,15.21
2022-09-15T02:01:51.896Z,15.17
2022-09-15T02:04:27.749Z,15.08
2022-09-15T02:07:07.186Z,15.04
2022-09-15T02:09:43.260Z,15.11
2022-09-15T02:12:34.028Z,15.05
2022-09-15T02:15:09.145Z,15.15
2022-09-15T02:17:45.784Z,15.10
2022-09-15T02:20:22.893Z,15.04
2022-09-15T02:22:55.759Z,14.99
2022-09-15T02:25:29.861Z,14.98
2022-09-15T02:28:03.035Z,14.93
2022-09-15T02:30:36.382Z,14.93
2022-09-15T02:33:10.535Z,14.94
2022-09-15T02:35:41.863Z,14.85
2022-09-15T02:38:13.140Z,14.80
2022-09-15T02:40:44.959Z,14.83
2022-09-15T02:43:18.038Z,14.95
2022-09-15T02:45:49.683Z,14.81
2022-09-15T02:48:19.350Z,14.84
2022-09-15T02:50:49.144Z,14.83
2022-09-15T02:53:24.640Z,14.78
2022-09-15T02:55:54.132Z,14.74
2022-09-15T02:58:23.932Z,14.59
2022-09-15T03:00:55.683Z,14.53
2022-09-15T03:03:25.796Z,14.49
2022-09-15T03:05:57.257Z,14.35
2022-09-15T03:08:28.605Z,14.31
2022-09-15T03:10:59.938Z,14.25
2022-09-15T03:13:29.735Z,14.26
2022-09-15T03:15:59.838Z,14.34
2022-09-15T03:18:29.687Z,14.34
2022-09-15T03:20:59.475Z,14.28
2022-09-15T03:23:29.358Z,14.27
2022-09-15T03:26:02.030Z,14.24
2022-09-15T03:28:32.143Z,14.23
2022-09-15T03:31:02.997Z,14.41
2022-09-15T03:33:33.060Z,14.18
2022-09-15T03:36:03.239Z,14.10
2022-09-15T03:38:33.232Z,14.11
2022-09-15T03:41:07.538Z,14.10
2022-09-15T03:43:38.185Z,14.03
2022-09-15T03:46:07.811Z,14.03
2022-09-15T03:48:41.941Z,13.94
2022-09-15T03:51:12.222Z,13.94
2022-09-15T03:53:43.181Z,13.88
2022-09-15T03:56:22.069Z,13.94
2022-09-15T03:58:52.622Z,13.82
2022-09-15T04:01:24.054Z,13.80
2022-09-15T04:03:54.337Z,13.80
2022-09-15T04:06:25.673Z,13.80
2022-09-15T04:08:57.999Z,13.78
2022-09-15T04:11:38.237Z,13.82
2022-09-15T04:14:07.769Z,13.79
2022-09-15T04:16:37.673Z,13.71
2022-09-15T04:19:07.616Z,13.76
2022-09-15T04:21:37.882Z,13.75
2022-09-15T04:24:07.585Z,13.75
2022-09-15T04:26:38.699Z,13.78
2022-09-15T04:29:14.228Z,13.67
2022-09-15T04:31:44.655Z,13.65
2022-09-15T04:34:14.391Z,13.68
2022-09-15T04:36:44.186Z,13.58
2022-09-15T04:39:13.992Z,13.68
2022-09-15T04:41:43.806Z,13.69
2022-09-15T04:44:13.665Z,13.70
2022-09-15T04:46:43.496Z,13.56
2022-09-15T04:49:13.327Z,13.61
2022-09-15T04:51:43.178Z,13.68
2022-09-15T04:54:12.929Z,13.63
2022-09-15T04:56:42.744Z,13.64
2022-09-15T04:59:17.656Z,13.59
2022-09-15T05:01:48.310Z,13.86
2022-09-15T05:04:18.382Z,13.71
2022-09-15T05:06:48.173Z,13.67
2022-09-15T05:09:17.764Z,13.61
2022-09-15T05:11:47.582Z,13.64
2022-09-15T05:14:17.262Z,13.63
2022-09-15T05:16:47.095Z,13.68
2022-09-15T05:19:16.689Z,13.76
2022-09-15T05:21:46.578Z,13.77
2022-09-15T05:24:16.472Z,13.73
2022-09-15T05:26:46.260Z,13.62
2022-09-15T05:29:16.539Z,13.67
2022-09-15T05:31:46.421Z,13.68
2022-09-15T05:34:16.001Z,13.78
2022-09-15T05:36:45.841Z,13.77
2022-09-15T05:39:15.377Z,13.91
2022-09-15T05:41:45.178Z,13.89
2022-09-15T05:44:17.083Z,13.88
2022-09-15T05:46:49.387Z,13.86
2022-09-15T05:49:31.264Z,13.99
2022-09-15T05:52:03.139Z,13.96
2022-09-15T05:57:48.388Z,13.99
2022-09-15T06:00:20.065Z,14.08
2022-09-15T06:02:49.947Z,14.16
2022-09-15T06:05:19.458Z,14.28
2022-09-15T06:07:49.481Z,14.35
2022-09-15T06:10:19.064Z,14.42
2022-09-15T06:12:49.988Z,14.44
2022-09-15T06:15:21.814Z,14.56
2022-09-15T06:17:52.166Z,14.51
2022-09-15T06:20:21.667Z,14.60
2022-09-15T06:22:51.731Z,14.68
2022-09-15T06:25:21.245Z,14.58
2022-09-15T06:27:51.606Z,14.56
2022-09-15T06:30:21.323Z,14.48
2022-09-15T06:32:51.133Z,14.52
2022-09-15T06:35:21.941Z,14.67
2022-09-15T06:37:52.016Z,14.74
2022-09-15T06:40:21.782Z,14.75
2022-09-15T06:42:54.605Z,14.75
2022-09-15T06:45:24.410Z,14.93
2022-09-15T06:48:07.617Z,15.01
2022-09-15T06:50:26.067Z,14.97
2022-09-15T06:52:55.861Z,15.11
2022-09-15T06:55:25.792Z,15.11
2022-09-15T06:58:01.587Z,15.15
2022-09-15T07:00:31.395Z,15.23
2022-09-15T07:03:01.362Z,15.23
2022-09-15T07:05:31.505Z,15.32
2022-09-15T07:08:01.115Z,15.40
2022-09-15T07:10:30.944Z,15.43
2022-09-15T07:13:01.348Z,15.35
2022-09-15T07:15:31.700Z,15.61
2022-09-15T07:18:01.278Z,15.73
2022-09-15T07:20:31.470Z,15.62
2022-09-15T07:23:01.257Z,15.54
2022-09-15T07:25:31.090Z,15.68
2022-09-15T07:28:00.892Z,15.95
2022-09-15T07:30:30.771Z,16.10
2022-09-15T07:33:00.534Z,16.18
2022-09-15T07:35:30.369Z,15.80
2022-09-15T07:38:00.622Z,16.07
2022-09-15T07:40:31.885Z,16.27
2022-09-15T07:43:01.949Z,16.30
2022-09-15T07:45:32.910Z,16.16
2022-09-15T07:48:03.037Z,16.37
2022-09-15T07:50:34.889Z,16.75
2022-09-15T07:53:06.226Z,16.64
2022-09-15T07:55:35.775Z,16.82
2022-09-15T07:58:05.988Z,16.82
2022-09-15T08:00:35.868Z,16.61
2022-09-15T08:03:06.653Z,16.71
2022-09-15T08:05:40.332Z,17.51
2022-09-15T08:08:07.831Z,17.51
2022-09-15T08:10:41.292Z,17.53
2022-09-15T08:13:11.092Z,17.55
2022-09-15T08:15:41.161Z,18.04
2022-09-15T08:18:12.270Z,17.70
2022-09-15T08:20:43.183Z,17.74
2022-09-15T08:23:13.064Z,17.62
2022-09-15T08:25:44.811Z,18.19
2022-09-15T08:28:14.346Z,17.53
2022-09-15T08:30:45.120Z,17.41
2022-09-15T08:33:14.986Z,17.27
2022-09-15T08:35:44.793Z,17.41
2022-09-15T08:38:19.823Z,17.65
2022-09-15T08:40:49.692Z,17.58
2022-09-15T08:43:23.500Z,17.39
2022-09-15T08:46:03.137Z,17.86
2022-09-15T08:48:38.845Z,18.52
2022-09-15T08:51:14.156Z,18.73
2022-09-15T08:53:53.128Z,18.38
2022-09-15T08:56:22.717Z,18.97
2022-09-15T08:59:00.666Z,19.51
2022-09-15T09:02:07.004Z,18.68
2022-09-15T09:05:13.244Z,18.45
2022-09-15T09:08:02.880Z,18.41
2022-09-15T09:10:39.542Z,18.17
2022-09-15T09:13:32.053Z,18.72
2022-09-15T09:16:12.536Z,18.86
2022-09-15T09:19:04.689Z,18.80
2022-09-15T09:21:40.324Z,18.53
2022-09-15T09:24:27.537Z,18.60
2022-09-15T09:26:58.573Z,18.60
2022-09-15T09:29:37.251Z,18.50
2022-09-15T09:32:10.236Z,18.50
2022-09-15T09:34:45.634Z,18.63
2022-09-15T09:37:17.538Z,18.07
2022-09-15T09:39:49.440Z,17.57
2022-09-15T09:42:20.524Z,17.68
2022-09-15T09:44:50.786Z,17.62
2022-09-15T09:47:33.354Z,17.80
2022-09-15T09:50:03.267Z,18.06
2022-09-15T09:52:38.906Z,17.99
2022-09-15T09:55:23.829Z,18.30
2022-09-15T09:57:54.182Z,17.97
2022-09-15T10:00:35.294Z,18.25
2022-09-15T10:03:21.798Z,18.16
2022-09-15T10:06:24.099Z,18.18
2022-09-15T10:09:02.685Z,18.15
2022-09-15T10:11:44.391Z,18.02
2022-09-15T10:14:25.343Z,18.22
2022-09-15T10:17:07.469Z,18.08
2022-09-15T10:19:54.999Z,17.97
2022-09-15T10:22:39.960Z,17.85
2022-09-15T10:25:18.595Z,17.80
2022-09-15T10:28:03.808Z,17.36
2022-09-15T10:30:33.630Z,17.36
2022-09-15T10:33:31.105Z,17.52
2022-09-15T10:36:20.445Z,17.56
2022-09-15T10:38:53.132Z,17.35
2022-09-15T10:41:25.767Z,17.68
2022-09-15T10:44:21.251Z,17.90
2022-09-15T10:46:57.163Z,17.82
2022-09-15T10:49:48.001Z,17.79
2022-09-15T10:52:23.773Z,18.02
2022-09-15T10:55:12.960Z,18.21
2022-09-15T10:58:24.824Z,18.24
2022-09-15T11:01:30.513Z,18.20
2022-09-15T11:04:35.453Z,18.36
2022-09-15T11:07:19.766Z,18.49
2022-09-15T11:09:58.460Z,18.29
2022-09-15T11:12:34.141Z,18.29
2022-09-15T11:15:23.139Z,18.34
2022-09-15T11:17:59.426Z,18.51
2022-09-15T11:20:49.951Z,18.52
2022-09-15T11:23:32.621Z,18.54
2022-09-15T11:26:13.493Z,18.54
2022-09-15T11:28:56.435Z,18.36
2022-09-15T11:31:41.201Z,18.38
2022-09-15T11:34:20.976Z,18.34
2022-09-15T11:37:05.379Z,18.47
2022-09-15T11:39:54.319Z,18.14
2022-09-15T11:42:36.184Z,18.33
2022-09-15T11:45:09.661Z,18.39
2022-09-15T11:47:51.656Z,18.81
2022-09-15T11:50:26.014Z,19.14
2022-09-15T11:53:04.637Z,18.88
2022-09-15T11:55:40.416Z,18.89
2022-09-15T11:58:36.216Z,18.89
2022-09-15T12:01:12.877Z,19.05
2022-09-15T12:04:04.043Z,19.68
2022-09-15T12:06:46.189Z,19.38
2022-09-15T12:09:18.640Z,19.20
2022-09-15T12:11:54.335Z,18.91
2022-09-15T12:14:29.766Z,18.75
2022-09-15T12:17:00.438Z,18.75
2022-09-15T12:19:45.355Z,18.86
2022-09-15T12:22:46.574Z,18.71
2022-09-15T12:25:39.303Z,18.64
2022-09-15T12:28:28.255Z,18.10
2022-09-15T12:31:29.981Z,18.12
2022-09-15T12:34:07.069Z,18.33
2022-09-15T12:36:48.257Z,18.26
2022-09-15T12:39:47.146Z,18.15
2022-09-15T12:42:30.879Z,18.01
2022-09-15T12:45:11.223Z,18.15
2022-09-15T12:47:51.806Z,18.27
2022-09-15T12:50:24.777Z,18.03
2022-09-15T12:53:02.129Z,18.20
2022-09-15T12:55:40.857Z,18.44
2022-09-15T12:58:13.484Z,18.49
2022-09-15T13:01:13.993Z,18.29
2022-09-15T13:03:32.886Z,18.18
2022-09-15T13:06:23.617Z,18.19
2022-09-15T13:09:28.942Z,18.42
2022-09-15T13:12:05.425Z,18.43
2022-09-15T13:14:46.205Z,18.38
2022-09-15T13:17:20.161Z,18.50
2022-09-15T13:20:00.528Z,18.66
2022-09-15T13:22:37.684Z,18.75
2022-09-15T13:25:14.574Z,18.89
2022-09-15T13:28:02.656Z,18.99
2022-09-15T13:30:40.037Z,19.07
2022-09-15T13:36:24.564Z,18.78
2022-09-15T13:39:10.610Z,18.51
2022-09-15T13:42:12.379Z,18.46
2022-09-15T13:44:48.341Z,18.32
2022-09-15T13:47:36.559Z,18.21
2022-09-15T13:50:09.801Z,18.17
2022-09-15T13:53:03.475Z,17.76
2022-09-15T13:55:39.466Z,17.71
2022-09-15T14:01:03.595Z,17.43
2022-09-15T14:03:37.129Z,17.43
2022-09-15T14:06:18.323Z,17.41
2022-09-15T14:08:49.773Z,17.34
2022-09-15T14:11:25.198Z,17.20
2022-09-15T14:13:56.640Z,17.33
2022-09-15T14:16:30.784Z,17.19
2022-09-15T14:19:05.001Z,17.23
2022-09-15T14:21:36.195Z,17.32
2022-09-15T14:24:16.156Z,17.56
2022-09-15T14:26:46.826Z,17.77
2022-09-15T14:29:21.394Z,17.69
2022-09-15T14:31:51.651Z,17.86
2022-09-15T14:34:24.648Z,17.87
2022-09-15T14:37:10.317Z,17.98
2022-09-15T14:39:40.447Z,17.86
2022-09-15T14:42:13.977Z,17.94
2022-09-15T14:47:28.124Z,18.02
2022-09-15T14:50:22.589Z,17.91
2022-09-15T14:53:01.119Z,18.10
2022-09-15T14:55:40.402Z,17.82
2022-09-15T14:58:24.535Z,17.85
2022-09-15T15:01:06.744Z,17.79
2022-09-15T15:04:00.685Z,17.79
2022-09-15T15:06:39.334Z,17.61
2022-09-15T15:09:11.892Z,17.44
2022-09-15T15:11:43.963Z,17.53
2022-09-15T15:14:15.834Z,17.32
2022-09-15T15:16:54.091Z,17.40
2022-09-15T15:19:40.410Z,17.37
2022-09-15T15:22:17.031Z,17.54
2022-09-15T15:24:49.999Z,17.52
2022-09-15T15:27:38.008Z,17.44
2022-09-15T15:30:29.146Z,17.63
2022-09-15T15:33:22.825Z,17.53
2022-09-15T15:36:13.161Z,17.30
2022-09-15T15:38:47.557Z,17.21
2022-09-15T15:41:25.550Z,17.13
2022-09-15T15:44:10.124Z,17.13
2022-09-15T15:46:51.447Z,16.85
2022-09-15T15:49:23.621Z,16.85
2022-09-15T15:51:55.435Z,16.82
2022-09-15T15:54:26.995Z,16.71
2022-09-15T15:56:59.498Z,16.80
2022-09-15T15:59:30.029Z,16.56
2022-09-15T16:01:59.023Z,16.55
2022-09-15T16:04:28.693Z,16.63
2022-09-15T16:06:58.464Z,16.60
2022-09-15T16:09:28.095Z,16.51
2022-09-15T16:14:27.842Z,16.51
2022-09-15T16:17:00.599Z,16.47
2022-09-15T16:19:30.887Z,16.37
2022-09-15T16:22:02.204Z,16.39
2022-09-15T16:24:37.414Z,16.32
2022-09-15T16:27:10.306Z,16.28
2022-09-15T16:29:43.966Z,16.38
2022-09-15T16:32:22.389Z,16.13
2022-09-15T16:34:53.886Z,16.14
2022-09-15T16:37:23.879Z,16.17
2022-09-15T16:39:54.829Z,16.11
2022-09-15T16:42:24.773Z,16.11
2022-09-15T16:44:54.584Z,16.11
2022-09-15T16:47:25.843Z,15.82
2022-09-15T16:49:55.851Z,15.95
2022-09-15T16:52:25.829Z,15.91
2022-09-15T16:54:58.228Z,15.85
2022-09-15T16:57:34.953Z,15.76
2022-09-15T17:00:06.282Z,15.86
2022-09-15T17:02:38.127Z,15.82
2022-09-15T17:05:18.229Z,15.58
2022-09-15T17:07:47.845Z,15.55
2022-09-15T17:10:17.682Z,15.69
2022-09-15T17:12:47.597Z,15.47
2022-09-15T17:15:30.105Z,15.47
2022-09-15T17:17:59.940Z,15.34
2022-09-15T17:20:30.045Z,15.15
2022-09-15T17:22:59.766Z,15.05
2022-09-15T17:25:35.520Z,15.08
2022-09-15T17:28:06.556Z,15.06
2022-09-15T17:30:36.456Z,15.01
2022-09-15T17:33:09.934Z,14.94
2022-09-15T17:35:41.468Z,14.93
2022-09-15T17:38:11.496Z,14.82
2022-09-15T17:40:43.198Z,14.81
2022-09-15T17:43:18.191Z,15.00
2022-09-15T17:45:49.933Z,14.95
2022-09-15T17:48:26.061Z,14.98
2022-09-15T17:50:56.950Z,15.12
2022-09-15T17:53:29.154Z,15.12
2022-09-15T17:55:59.102Z,15.03
2022-09-15T17:58:31.508Z,15.03
2022-09-15T18:01:02.872Z,14.99
2022-09-15T18:03:35.264Z,14.89
2022-09-15T18:06:08.041Z,14.93
2022-09-15T18:08:38.134Z,14.99
2022-09-15T18:11:09.083Z,14.86
2022-09-15T18:13:39.013Z,14.94
2022-09-15T18:16:14.696Z,15.03
2022-09-15T18:18:45.162Z,14.85
2022-09-15T18:21:28.700Z,14.85
2022-09-15T18:23:59.668Z,14.82
2022-09-15T18:26:33.433Z,14.63
2022-09-15T18:29:03.608Z,14.69
2022-09-15T18:31:33.561Z,14.63
2022-09-15T18:34:03.433Z,14.69
2022-09-15T18:36:33.389Z,14.69
2022-09-15T18:39:05.621Z,14.53
2022-09-15T18:41:37.720Z,14.56
2022-09-15T18:44:13.600Z,14.51
2022-09-15T18:46:43.854Z,14.50
2022-09-15T18:49:13.622Z,14.41
2022-09-15T18:51:52.094Z,14.44
2022-09-15T18:54:16.402Z,14.44
2022-09-15T18:56:48.385Z,14.45
2022-09-15T18:59:18.296Z,14.41
2022-09-15T19:01:50.625Z,14.27
2022-09-15T19:04:21.136Z,14.02
2022-09-15T19:06:52.391Z,13.98
2022-09-15T19:09:22.323Z,13.87
2022-09-15T19:11:53.380Z,13.78
2022-09-15T19:14:27.878Z,13.68
2022-09-15T19:16:58.727Z,13.64
2022-09-15T19:19:29.829Z,13.57
2022-09-15T19:21:59.738Z,13.59
2022-09-15T19:24:31.164Z,13.46
2022-09-15T19:27:03.490Z,13.53
2022-09-15T19:29:35.889Z,13.34
2022-09-15T19:32:11.437Z,13.27
2022-09-15T19:34:43.316Z,13.22
2022-09-15T19:37:18.503Z,13.29
2022-09-15T19:39:48.036Z,13.32
2022-09-15T19:42:17.611Z,13.02
2022-09-15T19:44:54.288Z,13.00
2022-09-15T19:47:24.879Z,12.93
2022-09-15T19:49:55.151Z,13.04
2022-09-15T19:52:24.729Z,12.89
2022-09-15T19:54:55.794Z,13.03
2022-09-15T19:57:29.791Z,12.99
2022-09-15T19:59:59.595Z,12.99
2022-09-15T20:02:31.863Z,12.80
2022-09-15T20:07:52.674Z,13.05
2022-09-15T20:10:23.248Z,12.97
2022-09-15T20:12:54.026Z,12.83
2022-09-15T20:15:24.229Z,12.90
2022-09-15T20:17:54.863Z,12.71
2022-09-15T20:20:25.873Z,12.70
2022-09-15T20:22:56.646Z,12.70
2022-09-15T20:25:26.853Z,12.66
2022-09-15T20:27:57.031Z,12.57
2022-09-15T20:30:27.708Z,12.78
2022-09-15T20:32:58.573Z,12.50
2022-09-15T20:35:27.547Z,12.52
2022-09-15T20:37:58.398Z,12.38
2022-09-15T20:40:29.312Z,12.62
2022-09-15T20:42:59.877Z,12.55
2022-09-15T20:45:32.835Z,12.46
2022-09-15T20:48:03.330Z,12.48
2022-09-15T20:50:35.645Z,12.74
2022-09-15T20:53:06.688Z,12.66
2022-09-15T20:55:36.951Z,12.59
2022-09-15T20:58:08.292Z,12.71
2022-09-15T21:00:38.443Z,12.58
2022-09-15T21:03:08.914Z,12.59
2022-09-15T21:05:38.776Z,12.73
2022-09-15T21:08:11.754Z,12.63
2022-09-15T21:10:44.650Z,12.52
2022-09-15T21:13:14.554Z,12.51
2022-09-15T21:15:44.388Z,12.29
2022-09-15T21:18:14.222Z,12.23
2022-09-15T21:20:44.067Z,12.18
2022-09-15T21:23:13.980Z,12.13
2022-09-15T21:25:43.979Z,12.14
2022-09-15T21:28:14.280Z,12.05
2022-09-15T21:30:44.456Z,12.04
2022-09-15T21:33:14.282Z,12.06
2022-09-15T21:35:44.096Z,12.04
2022-09-15T21:38:13.709Z,12.03
2022-09-15T21:40:48.446Z,11.93
2022-09-15T21:43:18.731Z,11.85
2022-09-15T21:45:48.576Z,11.90
2022-09-15T21:48:18.596Z,11.90
2022-09-15T21:50:55.283Z,11.94
2022-09-15T21:53:25.580Z,11.95
2022-09-15T21:55:56.711Z,11.89
2022-09-15T21:58:28.179Z,11.97
2022-09-15T22:00:57.786Z,12.00
2022-09-15T22:03:28.297Z,11.97
2022-09-15T22:05:59.200Z,12.17
2022-09-15T22:08:29.301Z,12.08
2022-09-15T22:11:02.110Z,11.97
2022-09-15T22:13:31.932Z,11.97
2022-09-15T22:16:07.782Z,12.05
2022-09-15T22:18:39.502Z,12.05
2022-09-15T22:21:09.793Z,11.93
2022-09-15T22:23:40.150Z,11.96
2022-09-15T22:26:12.242Z,11.91
2022-09-15T22:28:42.086Z,11.99
2022-09-15T22:31:13.806Z,11.99
2022-09-15T22:33:44.101Z,12.03
2022-09-15T22:36:26.571Z,12.08
2022-09-15T22:38:55.086Z,12.09
2022-09-15T22:41:26.430Z,12.10
2022-09-15T22:43:56.501Z,12.17
2022-09-15T22:46:26.470Z,12.15
2022-09-15T22:48:56.328Z,12.19
2022-09-15T22:51:26.157Z,12.32
2022-09-15T22:53:58.512Z,12.44
2022-09-15T22:56:28.448Z,12.38
2022-09-15T22:58:58.717Z,12.44
2022-09-15T23:01:31.342Z,12.40
2022-09-15T23:04:02.888Z,12.38
2022-09-15T23:06:34.854Z,12.40
2022-09-15T23:09:07.701Z,12.39
2022-09-15T23:11:40.382Z,12.32
2022-09-15T23:14:18.026Z,12.48
2022-09-15T23:16:47.980Z,12.51
2022-09-15T23:19:17.906Z,12.40
2022-09-15T23:21:47.711Z,12.37
2022-09-15T23:24:17.519Z,12.44
2022-09-15T23:26:47.312Z,12.50
2022-09-15T23:29:17.254Z,12.61
2022-09-15T23:31:47.187Z,12.68
2022-09-15T23:34:19.101Z,12.73
2022-09-15T23:36:48.926Z,12.68
2022-09-15T23:39:18.929Z,12.55
2022-09-15T23:41:48.732Z,12.45
2022-09-15T23:44:19.370Z,12.40
2022-09-15T23:46:49.401Z,12.28
2022-09-15T23:49:19.025Z,12.38
2022-09-15T23:51:48.820Z,12.25
2022-09-15T23:54:18.635Z,12.30
2022-09-15T23:56:48.456Z,12.38
2022-09-15T23:59:20.359Z,12.36
